sensor_id;sensor_type;location;lat;lon;timestamp;P1;durP1;ratioP1;P2;durP2;ratioP2
13171;SDS011;6651;53.200;10.432;2022-08-11T00:01:17;3.88;;;2.60;;
13171;SDS011;6651;53.200;10.432;2022-08-11T00:06:23;3.40;;;2.38;;
13171;SDS011;6651;53.200;10.432;2022-08-11T00:08:50;5.75;;;2.80;;
13171;SDS011;6651;53.200;10.432;2022-08-11T00:11:16;4.13;;;2.67;;
13171;SDS011;6651;53.200;10.432;2022-08-11T00:13:43;4.40;;;2.63;;
13171;SDS011;6651;53.200;10.432;2022-08-11T00:16:12;3.38;;;2.42;;
13171;SDS011;6651;53.200;10.432;2022-08-11T00:18:42;3.97;;;2.50;;
13171;SDS011;6651;53.200;10.432;2022-08-11T00:21:09;4.70;;;2.67;;
13171;SDS011;6651;53.200;10.432;2022-08-11T00:26:32;2.53;;;2.33;;
13171;SDS011;6651;53.200;10.432;2022-08-11T00:29:07;5.82;;;3.05;;
13171;SDS011;6651;53.200;10.432;2022-08-11T00:31:34;3.13;;;2.40;;
13171;SDS011;6651;53.200;10.432;2022-08-11T00:34:00;4.35;;;2.60;;
13171;SDS011;6651;53.200;10.432;2022-08-11T00:36:29;3.55;;;2.60;;
13171;SDS011;6651;53.200;10.432;2022-08-11T00:39:02;3.22;;;2.63;;
13171;SDS011;6651;53.200;10.432;2022-08-11T00:41:33;3.42;;;2.55;;
13171;SDS011;6651;53.200;10.432;2022-08-11T01:00:21;3.40;;;2.45;;
13171;SDS011;6651;53.200;10.432;2022-08-11T01:05:48;2.78;;;2.20;;
13171;SDS011;6651;53.200;10.432;2022-08-11T01:16:13;3.10;;;2.67;;
13171;SDS011;6651;53.200;10.432;2022-08-11T01:18:52;4.82;;;2.42;;
13171;SDS011;6651;53.200;10.432;2022-08-11T01:56:04;2.80;;;2.45;;
13171;SDS011;6651;53.200;10.432;2022-08-11T02:03:49;3.00;;;2.58;;
13171;SDS011;6651;53.200;10.432;2022-08-11T02:06:27;2.60;;;2.33;;
13171;SDS011;6651;53.200;10.432;2022-08-11T02:12:02;3.50;;;2.83;;
13171;SDS011;6651;53.200;10.432;2022-08-11T02:14:38;3.05;;;2.60;;
13171;SDS011;6651;53.200;10.432;2022-08-11T02:17:12;3.03;;;2.72;;
13171;SDS011;6651;53.200;10.432;2022-08-11T02:25:52;2.75;;;2.55;;
13171;SDS011;6651;53.200;10.432;2022-08-11T02:28:21;2.72;;;2.53;;
13171;SDS011;6651;53.200;10.432;2022-08-11T02:33:41;3.63;;;2.60;;
13171;SDS011;6651;53.200;10.432;2022-08-11T02:36:11;2.78;;;2.40;;
13171;SDS011;6651;53.200;10.432;2022-08-11T02:38:42;2.53;;;2.33;;
13171;SDS011;6651;53.200;10.432;2022-08-11T02:41:15;3.15;;;2.80;;
13171;SDS011;6651;53.200;10.432;2022-08-11T02:57:32;3.97;;;3.15;;
13171;SDS011;6651;53.200;10.432;2022-08-11T03:00:03;2.97;;;2.60;;
13171;SDS011;6651;53.200;10.432;2022-08-11T03:05:26;3.60;;;2.75;;
13171;SDS011;6651;53.200;10.432;2022-08-11T03:10:21;3.80;;;2.70;;
13171;SDS011;6651;53.200;10.432;2022-08-11T03:16:12;3.20;;;2.72;;
13171;SDS011;6651;53.200;10.432;2022-08-11T03:21:23;6.13;;;2.83;;
13171;SDS011;6651;53.200;10.432;2022-08-11T03:31:58;5.55;;;2.85;;
13171;SDS011;6651;53.200;10.432;2022-08-11T03:34:26;2.75;;;2.50;;
13171;SDS011;6651;53.200;10.432;2022-08-11T03:43:06;3.20;;;2.90;;
13171;SDS011;6651;53.200;10.432;2022-08-11T03:48:27;3.38;;;2.97;;
13171;SDS011;6651;53.200;10.432;2022-08-11T03:53:43;3.40;;;2.70;;
13171;SDS011;6651;53.200;10.432;2022-08-11T03:56:21;3.58;;;2.78;;
13171;SDS011;6651;53.200;10.432;2022-08-11T04:01:37;3.30;;;2.60;;
13171;SDS011;6651;53.200;10.432;2022-08-11T04:15:13;2.92;;;2.67;;
13171;SDS011;6651;53.200;10.432;2022-08-11T04:23:57;3.75;;;2.67;;
13171;SDS011;6651;53.200;10.432;2022-08-11T04:34:48;3.28;;;2.70;;
13171;SDS011;6651;53.200;10.432;2022-08-11T04:37:19;3.20;;;2.60;;
13171;SDS011;6651;53.200;10.432;2022-08-11T04:57:18;4.53;;;3.20;;
13171;SDS011;6651;53.200;10.432;2022-08-11T05:00:07;3.47;;;3.17;;
13171;SDS011;6651;53.200;10.432;2022-08-11T05:03:08;3.95;;;3.35;;
13171;SDS011;6651;53.200;10.432;2022-08-11T05:13:33;4.07;;;3.40;;
13171;SDS011;6651;53.200;10.432;2022-08-11T05:16:23;5.00;;;3.30;;
13171;SDS011;6651;53.200;10.432;2022-08-11T05:19:17;3.97;;;3.50;;
13171;SDS011;6651;53.200;10.432;2022-08-11T05:22:04;3.78;;;3.33;;
13171;SDS011;6651;53.200;10.432;2022-08-11T05:24:49;3.78;;;3.45;;
13171;SDS011;6651;53.200;10.432;2022-08-11T05:27:50;3.95;;;3.55;;
13171;SDS011;6651;53.200;10.432;2022-08-11T05:30:35;4.03;;;3.40;;
13171;SDS011;6651;53.200;10.432;2022-08-11T05:33:41;4.32;;;3.60;;
13171;SDS011;6651;53.200;10.432;2022-08-11T05:36:48;5.80;;;3.72;;
13171;SDS011;6651;53.200;10.432;2022-08-11T05:39:19;3.95;;;3.30;;
13171;SDS011;6651;53.200;10.432;2022-08-11T05:42:05;3.85;;;3.30;;
13171;SDS011;6651;53.200;10.432;2022-08-11T05:44:52;5.55;;;3.40;;
13171;SDS011;6651;53.200;10.432;2022-08-11T05:47:37;4.72;;;3.58;;
13171;SDS011;6651;53.200;10.432;2022-08-11T05:50:22;6.57;;;3.63;;
13171;SDS011;6651;53.200;10.432;2022-08-11T05:53:08;5.25;;;3.58;;
13171;SDS011;6651;53.200;10.432;2022-08-11T05:55:53;6.32;;;3.80;;
13171;SDS011;6651;53.200;10.432;2022-08-11T05:58:41;5.82;;;3.60;;
13171;SDS011;6651;53.200;10.432;2022-08-11T06:01:41;5.10;;;3.83;;
13171;SDS011;6651;53.200;10.432;2022-08-11T06:04:04;8.88;;;3.90;;
13171;SDS011;6651;53.200;10.432;2022-08-11T06:06:59;6.32;;;3.90;;
13171;SDS011;6651;53.200;10.432;2022-08-11T06:09:33;5.80;;;3.42;;
13171;SDS011;6651;53.200;10.432;2022-08-11T06:12:02;8.38;;;3.58;;
13171;SDS011;6651;53.200;10.432;2022-08-11T06:14:29;6.00;;;3.70;;
13171;SDS011;6651;53.200;10.432;2022-08-11T06:16:57;4.55;;;3.53;;
13171;SDS011;6651;53.200;10.432;2022-08-11T06:19:29;5.95;;;3.58;;
13171;SDS011;6651;53.200;10.432;2022-08-11T06:21:56;6.32;;;3.58;;
13171;SDS011;6651;53.200;10.432;2022-08-11T06:24:23;5.85;;;3.80;;
13171;SDS011;6651;53.200;10.432;2022-08-11T06:26:51;7.15;;;3.97;;
13171;SDS011;6651;53.200;10.432;2022-08-11T06:29:18;7.80;;;3.83;;
13171;SDS011;6651;53.200;10.432;2022-08-11T06:31:58;7.00;;;3.50;;
13171;SDS011;6651;53.200;10.432;2022-08-11T06:37:14;4.50;;;3.53;;
13171;SDS011;6651;53.200;10.432;2022-08-11T06:39:56;5.70;;;3.28;;
13171;SDS011;6651;53.200;10.432;2022-08-11T06:47:44;5.93;;;2.90;;
13171;SDS011;6651;53.200;10.432;2022-08-11T06:50:15;6.35;;;3.05;;
13171;SDS011;6651;53.200;10.432;2022-08-11T06:53:00;4.50;;;3.25;;
13171;SDS011;6651;53.200;10.432;2022-08-11T06:55:27;5.55;;;3.00;;
13171;SDS011;6651;53.200;10.432;2022-08-11T06:58:16;4.80;;;2.95;;
13171;SDS011;6651;53.200;10.432;2022-08-11T07:01:03;5.72;;;3.00;;
13171;SDS011;6651;53.200;10.432;2022-08-11T07:03:31;5.60;;;3.00;;
13171;SDS011;6651;53.200;10.432;2022-08-11T07:06:03;6.68;;;3.08;;
13171;SDS011;6651;53.200;10.432;2022-08-11T07:08:41;4.35;;;3.22;;
13171;SDS011;6651;53.200;10.432;2022-08-11T07:14:24;3.25;;;2.60;;
13171;SDS011;6651;53.200;10.432;2022-08-11T07:17:12;4.72;;;2.72;;
13171;SDS011;6651;53.200;10.432;2022-08-11T07:19:39;2.72;;;2.53;;
13171;SDS011;6651;53.200;10.432;2022-08-11T07:22:25;5.57;;;2.88;;
13171;SDS011;6651;53.200;10.432;2022-08-11T07:25:13;5.53;;;2.80;;
13171;SDS011;6651;53.200;10.432;2022-08-11T07:28:02;3.25;;;2.58;;
13171;SDS011;6651;53.200;10.432;2022-08-11T07:30:47;3.40;;;2.65;;
13171;SDS011;6651;53.200;10.432;2022-08-11T07:33:22;5.72;;;2.90;;
13171;SDS011;6651;53.200;10.432;2022-08-11T07:35:51;5.38;;;2.53;;
13171;SDS011;6651;53.200;10.432;2022-08-11T07:38:23;3.83;;;2.50;;
13171;SDS011;6651;53.200;10.432;2022-08-11T07:41:07;3.80;;;2.50;;
13171;SDS011;6651;53.200;10.432;2022-08-11T07:43:34;4.05;;;2.60;;
13171;SDS011;6651;53.200;10.432;2022-08-11T07:46:00;3.50;;;2.65;;
13171;SDS011;6651;53.200;10.432;2022-08-11T07:48:47;4.88;;;2.63;;
13171;SDS011;6651;53.200;10.432;2022-08-11T07:51:32;3.03;;;2.47;;
13171;SDS011;6651;53.200;10.432;2022-08-11T07:54:17;2.70;;;2.38;;
13171;SDS011;6651;53.200;10.432;2022-08-11T07:56:43;4.57;;;2.40;;
13171;SDS011;6651;53.200;10.432;2022-08-11T07:59:10;5.47;;;2.50;;
13171;SDS011;6651;53.200;10.432;2022-08-11T08:01:55;5.40;;;2.40;;
13171;SDS011;6651;53.200;10.432;2022-08-11T08:04:41;6.07;;;2.75;;
13171;SDS011;6651;53.200;10.432;2022-08-11T08:07:25;4.97;;;2.55;;
13171;SDS011;6651;53.200;10.432;2022-08-11T08:10:10;6.10;;;2.28;;
13171;SDS011;6651;53.200;10.432;2022-08-11T08:12:54;3.33;;;2.47;;
13171;SDS011;6651;53.200;10.432;2022-08-11T08:15:40;5.60;;;2.70;;
13171;SDS011;6651;53.200;10.432;2022-08-11T08:18:25;3.03;;;2.20;;
13171;SDS011;6651;53.200;10.432;2022-08-11T08:20:51;6.03;;;2.50;;
13171;SDS011;6651;53.200;10.432;2022-08-11T08:23:20;3.15;;;2.25;;
13171;SDS011;6651;53.200;10.432;2022-08-11T08:26:00;5.30;;;2.60;;
13171;SDS011;6651;53.200;10.432;2022-08-11T08:28:28;5.07;;;2.50;;
13171;SDS011;6651;53.200;10.432;2022-08-11T08:30:54;4.10;;;2.20;;
13171;SDS011;6651;53.200;10.432;2022-08-11T08:33:22;5.07;;;2.78;;
13171;SDS011;6651;53.200;10.432;2022-08-11T08:35:54;4.03;;;2.40;;
13171;SDS011;6651;53.200;10.432;2022-08-11T08:38:38;4.03;;;2.42;;
13171;SDS011;6651;53.200;10.432;2022-08-11T08:41:12;8.20;;;2.60;;
13171;SDS011;6651;53.200;10.432;2022-08-11T08:43:47;4.50;;;2.50;;
13171;SDS011;6651;53.200;10.432;2022-08-11T08:46:17;3.80;;;2.47;;
13171;SDS011;6651;53.200;10.432;2022-08-11T08:48:46;4.68;;;2.50;;
13171;SDS011;6651;53.200;10.432;2022-08-11T08:51:13;4.43;;;2.45;;
13171;SDS011;6651;53.200;10.432;2022-08-11T08:53:59;4.47;;;2.55;;
13171;SDS011;6651;53.200;10.432;2022-08-11T08:56:30;4.45;;;2.33;;
13171;SDS011;6651;53.200;10.432;2022-08-11T08:58:58;3.05;;;2.47;;
13171;SDS011;6651;53.200;10.432;2022-08-11T09:01:30;4.13;;;2.40;;
13171;SDS011;6651;53.200;10.432;2022-08-11T09:04:10;2.58;;;2.22;;
13171;SDS011;6651;53.200;10.432;2022-08-11T09:06:37;2.47;;;2.28;;
13171;SDS011;6651;53.200;10.432;2022-08-11T09:09:05;5.80;;;2.55;;
13171;SDS011;6651;53.200;10.432;2022-08-11T09:11:36;4.88;;;2.47;;
13171;SDS011;6651;53.200;10.432;2022-08-11T09:14:27;9.98;;;2.50;;
13171;SDS011;6651;53.200;10.432;2022-08-11T09:17:20;2.78;;;2.35;;
13171;SDS011;6651;53.200;10.432;2022-08-11T09:19:47;3.55;;;2.20;;
13171;SDS011;6651;53.200;10.432;2022-08-11T09:22:22;3.67;;;2.30;;
13171;SDS011;6651;53.200;10.432;2022-08-11T09:25:08;3.55;;;2.03;;
13171;SDS011;6651;53.200;10.432;2022-08-11T09:27:53;4.80;;;2.30;;
13171;SDS011;6651;53.200;10.432;2022-08-11T09:30:20;7.63;;;3.40;;
13171;SDS011;6651;53.200;10.432;2022-08-11T09:32:50;4.70;;;2.80;;
13171;SDS011;6651;53.200;10.432;2022-08-11T09:35:33;4.35;;;2.70;;
13171;SDS011;6651;53.200;10.432;2022-08-11T09:38:03;6.75;;;3.00;;
13171;SDS011;6651;53.200;10.432;2022-08-11T09:40:48;4.65;;;2.40;;
13171;SDS011;6651;53.200;10.432;2022-08-11T09:43:16;4.93;;;3.35;;
13171;SDS011;6651;53.200;10.432;2022-08-11T09:46:02;7.95;;;2.75;;
13171;SDS011;6651;53.200;10.432;2022-08-11T09:48:29;3.75;;;2.40;;
13171;SDS011;6651;53.200;10.432;2022-08-11T09:50:59;4.78;;;2.60;;
13171;SDS011;6651;53.200;10.432;2022-08-11T09:53:26;3.47;;;2.40;;
13171;SDS011;6651;53.200;10.432;2022-08-11T09:55:54;4.97;;;2.65;;
13171;SDS011;6651;53.200;10.432;2022-08-11T09:58:21;4.82;;;2.38;;
13171;SDS011;6651;53.200;10.432;2022-08-11T10:00:48;3.75;;;2.90;;
13171;SDS011;6651;53.200;10.432;2022-08-11T10:03:16;2.58;;;2.30;;
13171;SDS011;6651;53.200;10.432;2022-08-11T10:05:43;3.08;;;2.30;;
13171;SDS011;6651;53.200;10.432;2022-08-11T10:08:29;3.00;;;2.28;;
13171;SDS011;6651;53.200;10.432;2022-08-11T10:10:57;4.60;;;2.40;;
13171;SDS011;6651;53.200;10.432;2022-08-11T10:13:26;3.58;;;2.30;;
13171;SDS011;6651;53.200;10.432;2022-08-11T10:15:54;5.03;;;2.30;;
13171;SDS011;6651;53.200;10.432;2022-08-11T10:18:34;6.88;;;2.30;;
13171;SDS011;6651;53.200;10.432;2022-08-11T10:26:55;2.65;;;2.20;;
13171;SDS011;6651;53.200;10.432;2022-08-11T10:29:35;4.78;;;2.30;;
13171;SDS011;6651;53.200;10.432;2022-08-11T10:32:23;4.38;;;2.03;;
13171;SDS011;6651;53.200;10.432;2022-08-11T10:35:08;3.85;;;1.92;;
13171;SDS011;6651;53.200;10.432;2022-08-11T10:37:41;4.55;;;2.17;;
13171;SDS011;6651;53.200;10.432;2022-08-11T10:40:09;4.25;;;2.20;;
13171;SDS011;6651;53.200;10.432;2022-08-11T10:42:39;3.22;;;2.10;;
13171;SDS011;6651;53.200;10.432;2022-08-11T10:45:24;4.97;;;2.20;;
13171;SDS011;6651;53.200;10.432;2022-08-11T10:48:09;3.15;;;1.92;;
13171;SDS011;6651;53.200;10.432;2022-08-11T10:50:36;5.53;;;2.10;;
13171;SDS011;6651;53.200;10.432;2022-08-11T10:53:21;3.55;;;2.30;;
13171;SDS011;6651;53.200;10.432;2022-08-11T10:56:06;2.83;;;2.20;;
13171;SDS011;6651;53.200;10.432;2022-08-11T10:58:51;4.22;;;2.30;;
13171;SDS011;6651;53.200;10.432;2022-08-11T11:01:34;3.65;;;2.10;;
13171;SDS011;6651;53.200;10.432;2022-08-11T11:04:11;3.33;;;1.90;;
13171;SDS011;6651;53.200;10.432;2022-08-11T11:09:13;3.97;;;2.17;;
13171;SDS011;6651;53.200;10.432;2022-08-11T11:11:46;3.35;;;2.00;;
13171;SDS011;6651;53.200;10.432;2022-08-11T11:14:32;1.77;;;1.67;;
13171;SDS011;6651;53.200;10.432;2022-08-11T11:17:21;5.15;;;1.90;;
13171;SDS011;6651;53.200;10.432;2022-08-11T11:20:06;3.13;;;2.08;;
13171;SDS011;6651;53.200;10.432;2022-08-11T11:22:33;2.13;;;1.95;;
13171;SDS011;6651;53.200;10.432;2022-08-11T11:25:07;2.65;;;2.20;;
13171;SDS011;6651;53.200;10.432;2022-08-11T11:27:58;4.43;;;1.98;;
13171;SDS011;6651;53.200;10.432;2022-08-11T11:30:23;2.58;;;1.90;;
13171;SDS011;6651;53.200;10.432;2022-08-11T11:33:01;2.97;;;2.00;;
13171;SDS011;6651;53.200;10.432;2022-08-11T11:35:37;2.35;;;1.90;;
13171;SDS011;6651;53.200;10.432;2022-08-11T11:38:08;4.20;;;1.83;;
13171;SDS011;6651;53.200;10.432;2022-08-11T11:40:35;1.98;;;1.73;;
13171;SDS011;6651;53.200;10.432;2022-08-11T11:43:01;3.30;;;2.05;;
13171;SDS011;6651;53.200;10.432;2022-08-11T11:45:29;2.60;;;1.80;;
13171;SDS011;6651;53.200;10.432;2022-08-11T11:47:56;2.85;;;2.10;;
13171;SDS011;6651;53.200;10.432;2022-08-11T11:50:30;1.90;;;1.80;;
13171;SDS011;6651;53.200;10.432;2022-08-11T11:52:57;3.50;;;2.08;;
13171;SDS011;6651;53.200;10.432;2022-08-11T11:55:23;4.32;;;2.10;;
13171;SDS011;6651;53.200;10.432;2022-08-11T11:57:51;6.28;;;2.20;;
13171;SDS011;6651;53.200;10.432;2022-08-11T12:00:36;2.25;;;2.00;;
13171;SDS011;6651;53.200;10.432;2022-08-11T12:03:22;2.88;;;1.95;;
13171;SDS011;6651;53.200;10.432;2022-08-11T12:05:48;3.13;;;2.05;;
13171;SDS011;6651;53.200;10.432;2022-08-11T12:08:17;2.63;;;2.10;;
13171;SDS011;6651;53.200;10.432;2022-08-11T12:10:45;3.58;;;2.20;;
13171;SDS011;6651;53.200;10.432;2022-08-11T12:13:12;2.30;;;1.83;;
13171;SDS011;6651;53.200;10.432;2022-08-11T12:15:57;1.98;;;1.80;;
13171;SDS011;6651;53.200;10.432;2022-08-11T12:18:27;3.40;;;2.30;;
13171;SDS011;6651;53.200;10.432;2022-08-11T12:20:54;2.03;;;1.80;;
13171;SDS011;6651;53.200;10.432;2022-08-11T12:23:21;3.47;;;2.08;;
13171;SDS011;6651;53.200;10.432;2022-08-11T12:26:05;4.13;;;1.90;;
13171;SDS011;6651;53.200;10.432;2022-08-11T12:28:50;3.97;;;2.05;;
13171;SDS011;6651;53.200;10.432;2022-08-11T12:31:16;5.28;;;2.20;;
13171;SDS011;6651;53.200;10.432;2022-08-11T12:33:46;3.28;;;2.03;;
13171;SDS011;6651;53.200;10.432;2022-08-11T12:36:12;2.40;;;1.98;;
13171;SDS011;6651;53.200;10.432;2022-08-11T12:38:40;3.80;;;2.15;;
13171;SDS011;6651;53.200;10.432;2022-08-11T12:41:07;2.42;;;1.90;;
13171;SDS011;6651;53.200;10.432;2022-08-11T12:43:51;3.58;;;2.05;;
13171;SDS011;6651;53.200;10.432;2022-08-11T12:46:36;2.25;;;2.10;;
13171;SDS011;6651;53.200;10.432;2022-08-11T12:49:22;6.25;;;2.40;;
13171;SDS011;6651;53.200;10.432;2022-08-11T12:52:08;5.95;;;2.10;;
13171;SDS011;6651;53.200;10.432;2022-08-11T12:57:16;3.03;;;1.90;;
13171;SDS011;6651;53.200;10.432;2022-08-11T13:00:03;4.60;;;2.08;;
13171;SDS011;6651;53.200;10.432;2022-08-11T13:02:48;3.35;;;1.92;;
13171;SDS011;6651;53.200;10.432;2022-08-11T13:05:33;3.53;;;2.10;;
13171;SDS011;6651;53.200;10.432;2022-08-11T13:08:01;3.40;;;2.10;;
13171;SDS011;6651;53.200;10.432;2022-08-11T13:10:28;3.92;;;2.10;;
13171;SDS011;6651;53.200;10.432;2022-08-11T13:13:16;2.72;;;2.10;;
13171;SDS011;6651;53.200;10.432;2022-08-11T13:15:44;4.32;;;2.00;;
13171;SDS011;6651;53.200;10.432;2022-08-11T13:18:13;2.10;;;1.90;;
13171;SDS011;6651;53.200;10.432;2022-08-11T13:20:40;3.05;;;2.10;;
13171;SDS011;6651;53.200;10.432;2022-08-11T13:23:08;3.53;;;2.08;;
13171;SDS011;6651;53.200;10.432;2022-08-11T13:25:37;2.55;;;1.75;;
13171;SDS011;6651;53.200;10.432;2022-08-11T13:28:03;5.85;;;1.90;;
13171;SDS011;6651;53.200;10.432;2022-08-11T13:30:30;3.65;;;1.90;;
13171;SDS011;6651;53.200;10.432;2022-08-11T13:33:15;3.78;;;2.03;;
13171;SDS011;6651;53.200;10.432;2022-08-11T13:35:42;3.00;;;2.00;;
13171;SDS011;6651;53.200;10.432;2022-08-11T13:38:10;2.05;;;1.73;;
13171;SDS011;6651;53.200;10.432;2022-08-11T13:40:37;2.13;;;1.95;;
13171;SDS011;6651;53.200;10.432;2022-08-11T13:43:04;3.60;;;2.05;;
13171;SDS011;6651;53.200;10.432;2022-08-11T13:45:30;4.90;;;2.13;;
13171;SDS011;6651;53.200;10.432;2022-08-11T13:47:57;3.42;;;1.90;;
13171;SDS011;6651;53.200;10.432;2022-08-11T13:50:24;2.88;;;1.80;;
13171;SDS011;6651;53.200;10.432;2022-08-11T13:53:09;2.35;;;1.92;;
13171;SDS011;6651;53.200;10.432;2022-08-11T13:55:37;2.20;;;1.90;;
13171;SDS011;6651;53.200;10.432;2022-08-11T13:58:04;4.68;;;2.05;;
13171;SDS011;6651;53.200;10.432;2022-08-11T14:00:30;2.42;;;2.03;;
13171;SDS011;6651;53.200;10.432;2022-08-11T14:02:56;2.45;;;2.00;;
13171;SDS011;6651;53.200;10.432;2022-08-11T14:05:35;1.83;;;1.73;;
13171;SDS011;6651;53.200;10.432;2022-08-11T14:08:03;5.28;;;2.08;;
13171;SDS011;6651;53.200;10.432;2022-08-11T14:10:32;4.55;;;2.17;;
13171;SDS011;6651;53.200;10.432;2022-08-11T14:12:59;2.70;;;2.20;;
13171;SDS011;6651;53.200;10.432;2022-08-11T14:15:45;3.88;;;2.10;;
13171;SDS011;6651;53.200;10.432;2022-08-11T14:18:16;2.22;;;1.77;;
13171;SDS011;6651;53.200;10.432;2022-08-11T14:20:43;3.78;;;2.00;;
13171;SDS011;6651;53.200;10.432;2022-08-11T14:23:30;2.83;;;2.20;;
13171;SDS011;6651;53.200;10.432;2022-08-11T14:25:57;3.00;;;1.98;;
13171;SDS011;6651;53.200;10.432;2022-08-11T14:28:43;1.98;;;1.60;;
13171;SDS011;6651;53.200;10.432;2022-08-11T14:31:09;4.60;;;1.80;;
13171;SDS011;6651;53.200;10.432;2022-08-11T14:33:36;2.88;;;1.70;;
13171;SDS011;6651;53.200;10.432;2022-08-11T14:36:02;3.58;;;1.80;;
13171;SDS011;6651;53.200;10.432;2022-08-11T14:38:31;4.32;;;2.10;;
13171;SDS011;6651;53.200;10.432;2022-08-11T14:40:57;2.08;;;1.80;;
13171;SDS011;6651;53.200;10.432;2022-08-11T14:43:42;4.25;;;1.73;;
13171;SDS011;6651;53.200;10.432;2022-08-11T14:46:28;1.80;;;1.58;;
13171;SDS011;6651;53.200;10.432;2022-08-11T14:49:13;1.70;;;1.60;;
13171;SDS011;6651;53.200;10.432;2022-08-11T14:51:40;4.05;;;1.80;;
13171;SDS011;6651;53.200;10.432;2022-08-11T14:54:07;4.65;;;1.60;;
13171;SDS011;6651;53.200;10.432;2022-08-11T14:56:52;2.40;;;1.60;;
13171;SDS011;6651;53.200;10.432;2022-08-11T14:59:18;1.65;;;1.55;;
13171;SDS011;6651;53.200;10.432;2022-08-11T15:01:45;2.75;;;1.55;;
13171;SDS011;6651;53.200;10.432;2022-08-11T15:04:29;1.70;;;1.27;;
13171;SDS011;6651;53.200;10.432;2022-08-11T15:06:56;4.38;;;1.52;;
13171;SDS011;6651;53.200;10.432;2022-08-11T15:09:23;2.80;;;1.45;;
13171;SDS011;6651;53.200;10.432;2022-08-11T15:11:49;2.38;;;1.70;;
13171;SDS011;6651;53.200;10.432;2022-08-11T15:14:34;2.65;;;1.92;;
13171;SDS011;6651;53.200;10.432;2022-08-11T15:17:19;3.03;;;1.50;;
13171;SDS011;6651;53.200;10.432;2022-08-11T15:19:46;4.13;;;1.65;;
13171;SDS011;6651;53.200;10.432;2022-08-11T15:22:32;1.80;;;1.60;;
13171;SDS011;6651;53.200;10.432;2022-08-11T15:25:17;2.25;;;1.40;;
13171;SDS011;6651;53.200;10.432;2022-08-11T15:27:45;4.00;;;1.65;;
13171;SDS011;6651;53.200;10.432;2022-08-11T15:30:30;1.75;;;1.63;;
13171;SDS011;6651;53.200;10.432;2022-08-11T15:33:16;2.25;;;1.60;;
13171;SDS011;6651;53.200;10.432;2022-08-11T15:36:02;2.53;;;1.60;;
13171;SDS011;6651;53.200;10.432;2022-08-11T15:38:50;1.90;;;1.30;;
13171;SDS011;6651;53.200;10.432;2022-08-11T15:41:16;2.42;;;1.55;;
13171;SDS011;6651;53.200;10.432;2022-08-11T15:44:05;3.17;;;1.60;;
13171;SDS011;6651;53.200;10.432;2022-08-11T15:46:50;4.18;;;1.90;;
13171;SDS011;6651;53.200;10.432;2022-08-11T15:49:38;2.90;;;1.40;;
13171;SDS011;6651;53.200;10.432;2022-08-11T15:52:09;3.28;;;1.55;;
13171;SDS011;6651;53.200;10.432;2022-08-11T15:54:39;1.80;;;1.70;;
13171;SDS011;6651;53.200;10.432;2022-08-11T15:57:09;2.83;;;1.52;;
13171;SDS011;6651;53.200;10.432;2022-08-11T15:59:55;5.55;;;1.80;;
13171;SDS011;6651;53.200;10.432;2022-08-11T16:02:40;3.25;;;1.60;;
13171;SDS011;6651;53.200;10.432;2022-08-11T16:05:20;2.08;;;1.45;;
13171;SDS011;6651;53.200;10.432;2022-08-11T16:07:47;2.03;;;1.77;;
13171;SDS011;6651;53.200;10.432;2022-08-11T16:10:14;1.95;;;1.52;;
13171;SDS011;6651;53.200;10.432;2022-08-11T16:13:01;4.75;;;1.70;;
13171;SDS011;6651;53.200;10.432;2022-08-11T16:15:27;2.92;;;1.95;;
13171;SDS011;6651;53.200;10.432;2022-08-11T16:18:12;3.72;;;1.70;;
13171;SDS011;6651;53.200;10.432;2022-08-11T16:20:40;2.72;;;1.63;;
13171;SDS011;6651;53.200;10.432;2022-08-11T16:23:08;3.58;;;1.88;;
13171;SDS011;6651;53.200;10.432;2022-08-11T16:25:34;3.22;;;1.80;;
13171;SDS011;6651;53.200;10.432;2022-08-11T16:28:04;3.95;;;1.70;;
13171;SDS011;6651;53.200;10.432;2022-08-11T16:30:32;2.58;;;1.80;;
13171;SDS011;6651;53.200;10.432;2022-08-11T16:33:02;2.22;;;1.40;;
13171;SDS011;6651;53.200;10.432;2022-08-11T16:35:30;1.92;;;1.60;;
13171;SDS011;6651;53.200;10.432;2022-08-11T16:38:24;4.47;;;1.73;;
13171;SDS011;6651;53.200;10.432;2022-08-11T16:41:03;3.03;;;1.77;;
13171;SDS011;6651;53.200;10.432;2022-08-11T16:43:31;2.17;;;1.35;;
13171;SDS011;6651;53.200;10.432;2022-08-11T16:46:16;2.95;;;1.77;;
13171;SDS011;6651;53.200;10.432;2022-08-11T16:49:03;2.35;;;1.30;;
13171;SDS011;6651;53.200;10.432;2022-08-11T16:51:30;2.83;;;1.73;;
13171;SDS011;6651;53.200;10.432;2022-08-11T16:56:29;2.92;;;1.50;;
13171;SDS011;6651;53.200;10.432;2022-08-11T16:58:56;2.50;;;1.52;;
13171;SDS011;6651;53.200;10.432;2022-08-11T17:01:43;2.88;;;1.30;;
13171;SDS011;6651;53.200;10.432;2022-08-11T17:07:04;4.03;;;1.58;;
13171;SDS011;6651;53.200;10.432;2022-08-11T17:09:49;3.10;;;1.50;;
13171;SDS011;6651;53.200;10.432;2022-08-11T17:12:35;2.65;;;1.45;;
13171;SDS011;6651;53.200;10.432;2022-08-11T17:15:21;1.77;;;1.40;;
13171;SDS011;6651;53.200;10.432;2022-08-11T17:18:06;2.63;;;1.60;;
13171;SDS011;6651;53.200;10.432;2022-08-11T17:20:36;3.22;;;1.55;;
13171;SDS011;6651;53.200;10.432;2022-08-11T17:23:02;3.17;;;1.30;;
13171;SDS011;6651;53.200;10.432;2022-08-11T17:25:48;1.98;;;1.63;;
13171;SDS011;6651;53.200;10.432;2022-08-11T17:28:15;2.58;;;1.63;;
13171;SDS011;6651;53.200;10.432;2022-08-11T17:30:43;3.28;;;1.70;;
13171;SDS011;6651;53.200;10.432;2022-08-11T17:33:28;2.45;;;1.30;;
13171;SDS011;6651;53.200;10.432;2022-08-11T17:36:17;3.35;;;1.42;;
13171;SDS011;6651;53.200;10.432;2022-08-11T17:38:44;3.13;;;1.63;;
13171;SDS011;6651;53.200;10.432;2022-08-11T17:41:12;4.40;;;1.70;;
13171;SDS011;6651;53.200;10.432;2022-08-11T17:43:58;4.82;;;1.65;;
13171;SDS011;6651;53.200;10.432;2022-08-11T17:46:43;4.55;;;1.58;;
13171;SDS011;6651;53.200;10.432;2022-08-11T17:49:28;2.30;;;1.50;;
13171;SDS011;6651;53.200;10.432;2022-08-11T17:52:01;4.35;;;1.73;;
13171;SDS011;6651;53.200;10.432;2022-08-11T17:54:46;3.00;;;1.50;;
13171;SDS011;6651;53.200;10.432;2022-08-11T17:57:33;4.68;;;1.70;;
13171;SDS011;6651;53.200;10.432;2022-08-11T18:00:19;4.20;;;1.63;;
13171;SDS011;6651;53.200;10.432;2022-08-11T18:02:46;4.55;;;1.63;;
13171;SDS011;6651;53.200;10.432;2022-08-11T18:05:32;6.75;;;1.60;;
13171;SDS011;6651;53.200;10.432;2022-08-11T18:08:00;2.28;;;1.65;;
13171;SDS011;6651;53.200;10.432;2022-08-11T18:10:46;3.90;;;1.67;;
13171;SDS011;6651;53.200;10.432;2022-08-11T18:13:32;4.20;;;1.80;;
13171;SDS011;6651;53.200;10.432;2022-08-11T18:16:18;3.92;;;1.80;;
13171;SDS011;6651;53.200;10.432;2022-08-11T18:19:04;5.05;;;1.60;;
13171;SDS011;6651;53.200;10.432;2022-08-11T18:21:49;2.38;;;1.70;;
13171;SDS011;6651;53.200;10.432;2022-08-11T18:24:36;3.53;;;1.50;;
13171;SDS011;6651;53.200;10.432;2022-08-11T18:27:22;3.78;;;1.60;;
13171;SDS011;6651;53.200;10.432;2022-08-11T18:30:09;2.92;;;1.52;;
13171;SDS011;6651;53.200;10.432;2022-08-11T18:32:55;3.53;;;1.67;;
13171;SDS011;6651;53.200;10.432;2022-08-11T18:35:42;2.95;;;1.60;;
13171;SDS011;6651;53.200;10.432;2022-08-11T18:38:27;2.83;;;1.70;;
13171;SDS011;6651;53.200;10.432;2022-08-11T18:41:13;5.35;;;1.70;;
13171;SDS011;6651;53.200;10.432;2022-08-11T18:43:59;4.60;;;1.67;;
13171;SDS011;6651;53.200;10.432;2022-08-11T18:46:45;3.13;;;1.70;;
13171;SDS011;6651;53.200;10.432;2022-08-11T18:49:37;4.47;;;1.80;;
13171;SDS011;6651;53.200;10.432;2022-08-11T18:52:22;2.97;;;1.73;;
13171;SDS011;6651;53.200;10.432;2022-08-11T18:55:09;3.60;;;1.90;;
13171;SDS011;6651;53.200;10.432;2022-08-11T18:57:55;3.25;;;1.70;;
13171;SDS011;6651;53.200;10.432;2022-08-11T19:00:40;4.45;;;1.80;;
13171;SDS011;6651;53.200;10.432;2022-08-11T19:03:26;3.95;;;1.77;;
13171;SDS011;6651;53.200;10.432;2022-08-11T19:06:11;3.10;;;1.67;;
13171;SDS011;6651;53.200;10.432;2022-08-11T19:08:57;4.78;;;1.77;;
13171;SDS011;6651;53.200;10.432;2022-08-11T19:11:43;1.98;;;1.70;;